Latest Coastal Weather Observations for Gunn Point

IDD60701

Issued at 9:51 am CST Friday 27 February 2015 (issued every 10 minutes, with the page automatically refreshed every 10 minutes)

About coastal observations | Map of coastal stations | Coastal observations for NT | Marine services | Other Formats
Station Details ID: 014023 Name: GUNN POINT Lat: -12.25 Lon: 131.04 Height: 25.0 m
Data from the previous 72 hours. | See also: Recent months for locations in Northern Territory
Date/Time
CST
Temp

°C
Wind Pressure Rain
since 9am
mm
Weather Cloud Vis
km
Sea
Height
m
Swell
Dir
 
Speed
knots
Gust
knots
hPa Trend Height
m
Period
s
Dir
27/09:30am 29.0 SW 2 5 1008.0 - 0.0 - - - - - - -
27/09:00am 28.9 W 2 3 1007.9 - 5.6 - - - - - - -
27/08:30am 27.9 WSW 1 3 1007.6 - 5.6 - - - - - - -
27/08:00am 26.9 WSW 3 6 1007.3 - 5.6 - - - - - - -
27/07:30am 26.5 CALM 0 0 1006.8 - 5.6 - - - - - - -
27/07:00am 26.4 ENE 1 3 1006.7 - 5.6 - - - - - - -
27/06:30am 27.3 SSW 2 4 1006.5 - 5.6 - - - - - - -
27/06:00am 27.5 SW 2 4 1006.2 - 5.6 - - - - - - -
27/05:30am 27.4 W 4 8 1005.3 - 5.6 - - - - - - -
27/05:00am 26.8 W 3 6 1005.2 - 5.6 - - - - - - -
27/04:30am 26.6 WSW 3 6 1005.0 - 5.6 - - - - - - -
27/04:00am 26.6 WSW 2 4 1005.5 - 5.6 - - - - - - -
27/03:30am 26.9 W 2 4 1005.6 - 5.2 - - - - - - -
27/03:00am 27.0 W 3 5 1005.9 - 4.4 Rain - - - - - -
27/02:30am 26.6 WNW 2 4 1006.4 - 3.8 - - - - - - -
27/02:00am 26.4 CALM 0 0 1006.9 - 2.6 - - - - - - -
27/01:30am 26.6 CALM 0 0 1007.7 - 2.0 - - - - - - -
27/01:00am 27.4 WNW 1 4 1007.8 - 1.4 - - - - - - -
27/12:30am 27.7 WNW 2 4 1008.2 - 1.2 - - - - - - -
27/12:00am 27.7 NW 1 4 1008.7 - 1.2 - - - - - - -
 
Date/Time
CST
Temp

°C
Wind Pressure Rain
since 9am
mm
Weather Cloud Vis
km
Sea
Height
m
Swell
Dir
 
Speed
knots
Gust
knots
hPa Trend Height
m
Period
s
Dir
26/11:30pm 27.7 NW 2 6 1008.7 - 1.2 - - - - - - -
26/11:00pm 27.0 W 1 4 1008.7 - 1.2 - - - - - - -
26/10:30pm 26.5 NW 3 7 1008.6 - 1.2 - - - - - - -
26/10:00pm 28.6 NNW 3 7 1008.5 - 0.0 - - - - - - -
26/09:30pm 29.0 WNW 5 9 1007.3 - 0.0 - - - - - - -
26/09:00pm 29.0 WNW 4 10 1007.6 - 0.0 - - - - - - -
26/08:30pm 28.9 WNW 5 8 1006.6 - 0.0 - - - - - - -
26/08:00pm 28.6 WNW 4 7 1006.2 - 0.0 - - - - - - -
26/07:30pm 28.6 WNW 4 8 1006.3 - 0.0 - - - - - - -
26/07:00pm 28.9 WNW 4 8 1006.1 - 0.0 - - - - - - -
26/06:30pm 28.9 W 6 10 1005.8 - 0.0 - - - - - - -
26/06:00pm 29.2 WNW 4 9 1005.5 - 0.0 - - - - - - -
26/05:30pm 30.1 W 6 11 1005.5 - 0.0 - - - - - - -
26/05:00pm 30.8 W 6 10 1005.1 - 0.0 - - - - - - -
26/04:30pm 31.4 WNW 7 12 1005.0 - 0.0 - - - - - - -
26/04:00pm 30.7 WNW 6 11 1005.5 - 0.0 - - - - - - -
26/03:30pm 30.9 WNW 5 10 1005.4 - 0.0 - - - - - - -
26/03:00pm 30.8 WNW 5 9 1005.0 - 0.0 - - - - - - -
26/02:30pm 31.0 WNW 6 11 1005.7 - 0.0 - - - - - - -
26/02:00pm 30.4 WNW 6 11 1006.0 - 0.0 - - - - - - -
26/01:30pm 31.3 W 5 11 1006.5 - 0.0 - - - - - - -
26/01:00pm 30.7 WNW 5 8 1007.1 - 0.0 - - - - - - -
26/12:30pm 30.9 WNW 5 8 1007.5 - 0.0 - - - - - - -
26/12:00pm 30.8 W 3 7 1008.1 - 0.0 - - - - - - -
26/11:30am 30.5 W 5 8 1008.4 - 0.0 - - - - - - -
26/11:00am 30.5 W 4 6 1008.5 - 0.0 - - - - - - -
26/10:30am 30.2 W 2 6 1008.8 - 0.0 - - - - - - -
26/10:00am 29.5 W 4 6 1008.9 - 0.0 - - - - - - -
26/09:30am 29.4 W 2 3 1009.0 - 0.0 - - - - - - -
26/09:00am 28.4 SW 1 2 1008.9 - 0.0 - - - - - - -
26/08:30am 27.1 CALM 0 0 1008.8 - 0.0 - - - - - - -
26/08:00am 25.7 CALM 0 0 1008.2 - 0.0 - - - - - - -
26/07:30am 24.3 CALM 0 0 1007.6 - 0.0 - - - - - - -
26/07:00am 23.4 CALM 0 0 1007.5 - 0.0 - - - - - - -
26/06:30am 23.5 CALM 0 0 1007.5 - 0.0 - - - - - - -
26/06:00am 23.5 CALM 0 0 1007.4 - 0.0 - - - - - - -
26/05:30am 23.8 CALM 0 0 1007.2 - 0.0 - - - - - - -
26/05:00am 23.9 CALM 0 0 1007.0 - 0.0 - - - - - - -
26/04:30am 24.2 CALM 0 0 1007.0 - 0.0 - - - - - - -
26/04:00am 24.6 CALM 0 0 1007.0 - 0.0 - - - - - - -
26/03:30am 24.8 S 1 2 1007.1 - 0.0 - - - - - - -
26/03:00am 24.9 SSE 1 2 1007.3 - 0.0 - - - - - - -
26/02:30am 25.2 S 3 5 1007.4 - 0.0 - - - - - - -
26/02:00am 25.4 S 1 3 1007.5 - 0.0 - - - - - - -
26/01:30am 25.6 SSW 2 3 1007.6 - 0.0 - - - - - - -
26/01:00am 26.1 SSW 2 3 1007.8 - 0.0 - - - - - - -
26/12:30am 26.3 CALM 0 2 1007.9 - 0.0 - - - - - - -
26/12:00am 25.9 WSW 1 3 1008.4 - 0.0 - - - - - - -
 
Date/Time
CST
Temp

°C
Wind Pressure Rain
since 9am
mm
Weather Cloud Vis
km
Sea
Height
m
Swell
Dir
 
Speed
knots
Gust
knots
hPa Trend Height
m
Period
s
Dir
25/11:30pm 26.4 CALM 0 1 1008.9 - 0.0 - - - - - - -
25/11:00pm 26.9 WSW 2 3 1008.7 - 0.0 - - - - - - -
25/10:30pm 27.1 WSW 4 8 1008.7 - 0.0 - - - - - - -
25/10:00pm 25.9 CALM 0 0 1008.6 - 0.0 - - - - - - -
25/09:30pm 26.2 SW 1 2 1008.4 - 0.0 - - - - - - -
25/09:00pm 26.5 CALM 0 1 1008.4 - 0.0 - - - - - - -
25/08:30pm 26.7 CALM 0 1 1008.2 - 0.0 - - - - - - -
25/08:00pm 27.2 CALM 0 1 1008.0 - 0.0 - - - - - - -
25/07:30pm 27.7 SW 2 5 1007.9 - 0.0 - - - - - - -
25/07:00pm 28.1 SW 4 8 1007.9 - 0.0 - - - - - - -
25/06:30pm 28.4 WSW 4 9 1007.4 - 0.0 - - - - - - -
25/06:00pm 28.5 W 4 7 1006.9 - 0.0 - - - - - - -
25/05:30pm 28.6 W 5 11 1006.8 - 0.0 - - - - - - -
25/05:00pm 29.3 W 7 11 1006.4 - 0.0 - - - - - - -
25/04:30pm 30.4 W 6 10 1006.3 - 0.0 - - - - - - -
25/04:00pm 28.6 W 5 9 1006.3 - 0.0 - - - - - - -
25/03:30pm 28.4 W 5 10 1006.6 - 0.0 - - - - - - -
25/03:00pm 28.7 WNW 6 11 1006.4 - 0.0 - - - - - - -
25/02:30pm 30.2 W 6 11 1006.8 - 0.0 - - - - - - -
25/02:00pm 29.7 W 8 13 1007.3 - 0.0 - - - - - - -
25/01:30pm 29.9 W 8 12 1008.1 - 0.0 - - - - - - -
25/01:00pm 30.0 WNW 5 10 1008.9 - 0.0 - - - - - - -
25/12:30pm 30.4 WNW 4 9 1009.5 - 0.0 - - - - - - -
25/12:00pm 29.6 W 4 6 1009.9 - 0.0 - - - - - - -
25/11:30am 29.6 WNW 3 6 1010.1 - 0.0 - - - - - - -
25/11:00am 29.5 WNW 4 7 1010.6 - 0.0 - - - - - - -
25/10:30am 28.1 W 4 7 1010.6 - 0.0 - - - - - - -
25/10:00am 28.3 W 3 6 1010.6 - 0.0 - - - - - - -
25/09:30am 29.6 CALM 0 3 1010.4 - 0.0 - - - - - - -
25/09:00am 27.9 CALM 0 1 1010.7 - 6.8 - - - - - - -
25/08:30am 27.1 SE 1 3 1010.4 - 6.8 - - - - - - -
25/08:00am 26.2 CALM 0 0 1010.3 - 6.8 - - - - - - -
25/07:30am 25.9 E 1 2 1010.0 - 6.8 - - - - - - -
25/07:00am 25.6 CALM 0 0 1009.3 - 6.8 - - - - - - -
25/06:30am 25.5 CALM 0 0 1008.7 - 6.8 - - - - - - -
25/06:00am 25.5 CALM 0 0 1008.6 - 6.8 - - - - - - -
25/05:30am 25.9 CALM 0 0 1008.5 - 6.8 - - - - - - -
25/05:00am 26.7 SW 1 3 1008.1 - 6.8 - - - - - - -
25/04:30am 26.9 WSW 2 5 1008.1 - 6.8 - - - - - - -
25/04:00am 26.9 W 2 4 1007.8 - 6.8 - - - - - - -
25/03:30am 27.0 W 4 9 1007.6 - 6.8 - - - - - - -
25/03:00am 26.5 WNW 4 7 1007.2 - 6.8 Rain - - - - - -
25/02:30am 26.1 CALM 0 2 1007.5 - 6.6 - - - - - - -
25/02:00am 26.1 NW 2 4 1008.0 - 6.6 - - - - - - -
25/01:30am 26.1 CALM 0 0 1009.4 - 6.6 - - - - - - -
25/01:00am 26.3 CALM 0 2 1010.2 - 6.6 - - - - - - -
25/12:30am 26.4 ENE 3 6 1010.7 - 6.6 - - - - - - -
25/12:00am 26.4 NE 3 5 1010.9 - 6.6 - - - - - - -
 
Date/Time
CST
Temp

°C
Wind Pressure Rain
since 9am
mm
Weather Cloud Vis
km
Sea
Height
m
Swell
Dir
 
Speed
knots
Gust
knots
hPa Trend Height
m
Period
s
Dir
24/11:30pm 26.4 NE 1 2 1011.2 - 6.6 - - - - - - -
24/11:00pm 26.3 NE 3 5 1011.1 - 6.6 - - - - - - -
24/10:30pm 26.1 NE 2 3 1010.9 - 6.6 - - - - - - -
24/10:00pm 26.0 NNE 1 2 1010.4 - 6.6 - - - - - - -
24/09:30pm 25.9 CALM 0 1 1010.2 - 6.6 - - - - - - -
24/09:00pm 25.8 N 1 2 1010.2 - 6.0 Rain - - - - - -
24/08:30pm 25.7 N 2 2 1010.7 - 5.0 - - - - - - -
24/08:00pm 25.6 CALM 0 0 1010.4 - 4.2 - - - - - - -
24/07:30pm 25.5 CALM 0 0 1009.3 - 4.0 - - - - - - -
24/07:00pm 25.5 CALM 0 0 1008.7 - 4.0 - - - - - - -
24/06:30pm 25.6 CALM 0 0 1008.5 - 4.0 - - - - - - -
24/06:00pm 25.4 CALM 0 2 1008.3 - 3.6 Rain - - - - - -
24/05:30pm 26.1 SE 3 4 1008.1 - 2.0 - - - - - - -
24/05:00pm 26.3 S 1 3 1008.2 - 1.4 - - - - - - -
24/04:30pm 26.4 S 4 6 1007.8 - 1.2 - - - - - - -
24/04:00pm 26.6 SW 4 10 1007.7 - 1.0 - - - - - - -
24/03:30pm 26.5 WSW 4 7 1008.4 - 1.0 - - - - - - -
24/03:00pm 27.5 WSW 4 12 1008.2 - 1.0 Recent precip. - - - - - -
24/02:30pm 28.0 SW 4 8 1008.6 - 0.2 - - - - - - -
24/02:00pm 30.9 W 6 12 1008.5 - 0.0 - - - - - - -
24/01:30pm 31.1 WNW 6 10 1009.1 - 0.0 - - - - - - -
24/01:00pm 31.3 W 5 10 1009.6 - 0.0 - - - - - - -
24/12:30pm 31.0 W 4 7 1009.9 - 0.0 - - - - - - -
24/12:00pm 30.7 WNW 4 8 1010.5 - 0.0 - - - - - - -
24/11:30am 30.1 W 4 7 1010.9 - 0.0 - - - - - - -
24/11:00am 29.7 W 4 7 1011.1 - 0.0 - - - - - - -
24/10:30am 30.0 W 3 4 1011.2 - 0.0 - - - - - - -
24/10:00am 29.4 WSW 3 5 1011.2 - 0.0 - - - - - - -

Other Formats:

Comma delimited format used in spreadsheet applications
http://www.bom.gov.au/fwo/IDD60701/IDD60701.99501.axf

JavaScript Object Notation format (JSON) in row-major order
http://www.bom.gov.au/fwo/IDD60701/IDD60701.99501.json